Time;durP1;ratioP1;P1;durP2;ratioP2;P2;SDS_P1;SDS_P2;PMS_P1;PMS_P2;Temp;Humidity;BMP_temperature;BMP_pressure;BME280_temperature;BME280_humidity;BME280_pressure;Samples;Min_cycle;Max_cycle;Signal;HPM_P1;HPM_P2
2021/06/02 00:02:49;;;;;;;1.40;0.70;;;22.40;49.50;;;;;;6342357;28;20095;-65
2021/06/02 00:05:55;;;;;;;1.02;0.68;;;22.40;49.60;;;;;;6339936;28;20027;-65
2021/06/02 00:08:56;;;;;;;0.50;0.50;;;22.40;49.60;;;;;;6342019;28;20032;-65
2021/06/02 00:12:01;;;;;;;0.65;0.50;;;22.40;49.60;;;;;;6342159;28;20058;-66
2021/06/02 00:15:04;;;;;;;0.95;0.80;;;22.40;49.60;;;;;;6342355;28;20058;-65
2021/06/02 00:18:05;;;;;;;1.73;0.90;;;22.40;49.60;;;;;;6341019;28;20079;-65
2021/06/02 00:21:06;;;;;;;0.88;0.57;;;22.40;49.60;;;;;;6341559;28;20027;-65
2021/06/02 00:24:07;;;;;;;0.93;0.70;;;22.40;49.70;;;;;;6341848;28;20358;-65
2021/06/02 00:27:12;;;;;;;0.60;0.60;;;22.40;49.60;;;;;;6341626;28;20039;-65
2021/06/02 00:30:16;;;;;;;0.57;0.57;;;22.40;49.70;;;;;;6323389;28;20385;-65
2021/06/02 00:33:18;;;;;;;0.43;0.43;;;22.40;49.70;;;;;;6341567;28;20118;-65
2021/06/02 00:36:23;;;;;;;0.55;0.52;;;22.40;49.70;;;;;;6341366;28;20059;-65
2021/06/02 00:39:23;;;;;;;0.73;0.60;;;22.40;49.70;;;;;;6341999;28;20429;-65
2021/06/02 00:42:32;;;;;;;0.70;0.70;;;22.40;49.70;;;;;;6340945;28;20031;-65
2021/06/02 00:45:33;;;;;;;0.60;0.50;;;22.40;49.70;;;;;;6340965;28;20020;-65
2021/06/02 00:48:37;;;;;;;1.30;0.50;;;22.40;49.70;;;;;;6341412;28;20033;-65
2021/06/02 00:51:38;;;;;;;0.70;0.63;;;22.40;49.70;;;;;;6341720;28;20031;-66
2021/06/02 00:54:39;;;;;;;0.52;0.52;;;22.40;49.70;;;;;;6338000;28;20040;-65
2021/06/02 00:57:47;;;;;;;0.85;0.60;;;22.40;49.70;;;;;;6341801;28;20031;-65
2021/06/02 01:00:48;;;;;;;0.82;0.65;;;22.40;49.70;;;;;;6341601;28;20417;-65
2021/06/02 01:03:49;;;;;;;0.88;0.60;;;22.40;49.80;;;;;;6341334;28;20047;-65
2021/06/02 01:06:51;;;;;;;0.47;0.45;;;22.40;49.80;;;;;;6359050;27;20023;-65
2021/06/02 01:09:56;;;;;;;0.80;0.70;;;22.40;49.70;;;;;;6340640;28;20050;-65
2021/06/02 01:12:58;;;;;;;0.85;0.60;;;22.40;49.80;;;;;;6340815;28;20030;-65
2021/06/02 01:15:59;;;;;;;0.65;0.65;;;22.40;49.80;;;;;;6340337;28;20028;-65
2021/06/02 01:19:02;;;;;;;0.85;0.52;;;22.40;49.80;;;;;;6340664;28;20051;-65
2021/06/02 01:22:02;;;;;;;0.57;0.57;;;22.40;49.80;;;;;;6340214;28;20070;-65
2021/06/02 01:25:15;;;;;;;0.80;0.70;;;22.40;49.80;;;;;;6340787;28;20028;-65
2021/06/02 01:28:16;;;;;;;0.50;0.50;;;22.40;49.80;;;;;;6340412;28;20039;-65
2021/06/02 01:31:39;;;;;;;0.90;0.70;;;22.40;49.80;;;;;;6333615;28;20024;-65
2021/06/02 01:35:11;;;;;;;0.60;0.60;;;22.40;49.80;;;;;;6338864;28;20031;-65
2021/06/02 01:38:26;;;;;;;0.80;0.60;;;22.40;49.80;;;;;;6339726;28;20062;-65
2021/06/02 01:41:50;;;;;;;0.65;0.57;;;22.40;49.80;;;;;;6340176;28;20034;-65
2021/06/02 01:44:56;;;;;;;0.75;0.60;;;22.40;49.80;;;;;;6339956;28;20042;-65
2021/06/02 01:48:27;;;;;;;1.10;0.50;;;22.40;49.90;;;;;;6340026;28;20024;-65
2021/06/02 01:51:48;;;;;;;0.40;0.40;;;22.40;49.90;;;;;;6339902;28;20020;-66
2021/06/02 01:55:27;;;;;;;0.60;0.50;;;22.40;49.90;;;;;;6334749;28;20040;-66
2021/06/02 01:59:01;;;;;;;0.50;0.50;;;22.40;49.90;;;;;;6339757;28;20472;-65
2021/06/02 02:02:31;;;;;;;0.68;0.50;;;22.40;49.90;;;;;;6339905;28;20032;-65
2021/06/02 02:05:43;;;;;;;0.75;0.70;;;22.40;49.90;;;;;;6339459;28;20459;-65
2021/06/02 02:08:57;;;;;;;0.70;0.60;;;22.40;49.90;;;;;;6339757;28;20309;-65
2021/06/02 02:12:30;;;;;;;0.73;0.50;;;22.40;49.90;;;;;;6339490;28;20383;-65
2021/06/02 02:16:08;;;;;;;0.45;0.45;;;22.40;49.90;;;;;;6320871;28;20028;-65
2021/06/02 02:19:17;;;;;;;0.80;0.70;;;22.40;49.90;;;;;;6332425;28;20035;-65
2021/06/02 02:22:40;;;;;;;0.47;0.47;;;22.40;49.90;;;;;;6339476;28;20020;-65
2021/06/02 02:25:56;;;;;;;0.57;0.57;;;22.40;49.90;;;;;;6339855;28;20110;-65
2021/06/02 02:29:15;;;;;;;1.38;0.80;;;22.40;49.90;;;;;;6339834;28;20030;-65
2021/06/02 02:32:34;;;;;;;0.50;0.50;;;22.40;49.90;;;;;;6339196;28;20016;-65
2021/06/02 02:36:11;;;;;;;1.17;0.68;;;22.40;50.00;;;;;;6339949;28;20020;-65
2021/06/02 02:39:23;;;;;;;0.40;0.40;;;22.40;49.90;;;;;;6339367;28;20035;-65
2021/06/02 02:42:51;;;;;;;0.82;0.60;;;22.40;50.00;;;;;;6335763;28;20441;-65
2021/06/02 02:46:08;;;;;;;0.80;0.60;;;22.40;50.00;;;;;;6334294;28;20397;-65
2021/06/02 02:49:40;;;;;;;0.47;0.47;;;22.40;50.00;;;;;;6330061;28;20106;-65
2021/06/02 02:52:41;;;;;;;0.60;0.47;;;22.40;50.00;;;;;;6332285;28;20024;-65
2021/06/02 02:55:42;;;;;;;0.47;0.47;;;22.40;50.00;;;;;;6330849;28;20241;-65
2021/06/02 02:59:12;;;;;;;0.60;0.50;;;22.40;50.00;;;;;;6344325;28;20023;-65
2021/06/02 03:02:22;;;;;;;0.60;0.60;;;22.40;50.00;;;;;;6330370;28;20478;-65
2021/06/02 03:05:36;;;;;;;0.85;0.50;;;22.40;50.00;;;;;;6343936;28;20379;-65
2021/06/02 03:09:01;;;;;;;0.77;0.60;;;22.40;50.00;;;;;;6341339;28;20469;-65
2021/06/02 03:12:16;;;;;;;0.70;0.60;;;22.40;50.00;;;;;;6344298;28;20076;-65
2021/06/02 03:15:45;;;;;;;0.75;0.57;;;22.40;50.00;;;;;;6328226;28;20380;-65
2021/06/02 03:19:07;;;;;;;0.60;0.60;;;22.40;50.00;;;;;;6338241;28;20769;-65
2021/06/02 03:22:14;;;;;;;0.85;0.70;;;22.40;50.00;;;;;;6338168;28;20016;-65
2021/06/02 03:25:26;;;;;;;0.65;0.40;;;22.40;50.00;;;;;;6343499;28;20022;-65
2021/06/02 03:29:06;;;;;;;0.60;0.50;;;22.40;50.00;;;;;;6339018;28;20022;-65
2021/06/02 03:32:34;;;;;;;0.80;0.70;;;22.40;50.00;;;;;;6331520;28;20051;-65
2021/06/02 03:36:00;;;;;;;1.05;0.88;;;22.40;50.00;;;;;;6335423;28;20293;-65
2021/06/02 03:39:03;;;;;;;;;;;22.40;50.00;;;;;;6342187;28;20043;-65
2021/06/02 03:42:25;;;;;;;0.88;0.52;;;22.40;50.00;;;;;;6335930;28;20354;-65
2021/06/02 03:45:37;;;;;;;0.68;0.60;;;22.40;50.00;;;;;;6342555;28;20495;-65
2021/06/02 03:49:08;;;;;;;0.90;0.60;;;22.40;50.00;;;;;;6342949;28;20078;-65
2021/06/02 03:52:22;;;;;;;0.60;0.60;;;22.40;50.10;;;;;;6339638;28;20033;-65
2021/06/02 03:55:37;;;;;;;0.68;0.57;;;22.40;50.00;;;;;;6334089;28;20489;-65
2021/06/02 04:02:45;;;;;;;0.90;0.52;;;22.40;50.00;;;;;;6335089;28;20031;-65
2021/06/02 04:06:17;;;;;;;0.50;0.50;;;22.30;50.00;;;;;;6341944;28;20503;-65
2021/06/02 04:09:30;;;;;;;0.60;0.50;;;22.40;50.10;;;;;;6342225;28;20023;-65
2021/06/02 04:12:34;;;;;;;0.70;0.65;;;22.40;50.00;;;;;;6324035;28;20073;-65
2021/06/02 04:15:37;;;;;;;0.70;0.60;;;22.40;50.10;;;;;;6332500;28;20399;-65
2021/06/02 04:18:38;;;;;;;0.47;0.45;;;22.40;50.10;;;;;;6325081;28;20059;-65
2021/06/02 04:21:41;;;;;;;0.60;0.60;;;22.40;50.10;;;;;;6341791;28;20042;-65
2021/06/02 04:24:44;;;;;;;1.20;0.60;;;22.30;50.70;;;;;;6340274;28;20061;-66
2021/06/02 04:27:47;;;;;;;0.77;0.60;;;22.40;50.10;;;;;;6341622;28;20067;-65
2021/06/02 04:30:49;;;;;;;0.75;0.52;;;22.40;50.10;;;;;;6341378;28;20036;-65
2021/06/02 04:33:51;;;;;;;0.95;0.70;;;22.40;50.10;;;;;;6341707;28;20388;-65
2021/06/02 04:36:54;;;;;;;1.00;0.70;;;22.40;50.10;;;;;;6341771;28;20031;-65
2021/06/02 04:39:55;;;;;;;0.50;0.50;;;22.40;50.10;;;;;;6323594;28;20077;-65
2021/06/02 04:43:00;;;;;;;0.52;0.50;;;22.40;50.10;;;;;;6366896;27;20319;-65
2021/06/02 04:46:01;;;;;;;;;;;22.40;50.10;;;;;;6350288;27;20099;-65
2021/06/02 04:49:02;;;;;;;0.65;0.60;;;22.30;50.00;;;;;;6341236;28;19990;-65
2021/06/02 04:52:15;;;;;;;0.60;0.60;;;22.30;50.00;;;;;;6340508;28;20104;-65
2021/06/02 04:55:43;;;;;;;0.75;0.60;;;22.40;50.10;;;;;;6319748;28;20067;-65
2021/06/02 04:59:08;;;;;;;0.40;0.40;;;22.30;50.00;;;;;;6342034;28;20251;-65
2021/06/02 05:02:47;;;;;;;0.73;0.63;;;22.40;50.20;;;;;;6314784;28;20660;-64
2021/06/02 05:06:06;;;;;;;0.70;0.60;;;22.40;50.10;;;;;;6344765;27;20068;-65
2021/06/02 05:09:42;;;;;;;1.27;0.60;;;22.40;50.20;;;;;;6319704;28;20695;-65
2021/06/02 05:13:04;;;;;;;0.43;0.40;;;22.40;50.10;;;;;;6339072;28;20050;-65
2021/06/02 05:16:24;;;;;;;0.90;0.65;;;22.40;50.10;;;;;;6340018;28;20099;-65
2021/06/02 05:23:17;;;;;;;0.77;0.70;;;22.40;50.20;;;;;;6335594;28;20316;-65
2021/06/02 05:26:49;;;;;;;0.95;0.60;;;22.40;50.10;;;;;;6324653;28;20066;-65
2021/06/02 05:29:58;;;;;;;0.50;0.50;;;22.40;50.20;;;;;;6339482;28;20053;-65
2021/06/02 05:33:37;;;;;;;0.47;0.47;;;22.40;50.10;;;;;;6340774;28;20031;-64
2021/06/02 05:36:50;;;;;;;2.30;0.60;;;22.40;50.20;;;;;;6314192;28;20517;-68
2021/06/02 05:40:28;;;;;;;0.90;0.60;;;22.40;50.20;;;;;;6331663;28;20035;-69
2021/06/02 05:43:53;;;;;;;0.90;0.65;;;22.40;50.10;;;;;;6342164;27;20066;-68
2021/06/02 05:47:15;;;;;;;0.80;0.70;;;22.40;50.20;;;;;;6337469;27;20031;-69
2021/06/02 05:50:47;;;;;;;0.60;0.60;;;22.40;50.20;;;;;;6345703;28;20058;-68
2021/06/02 05:53:50;;;;;;;0.60;0.60;;;22.40;50.20;;;;;;6329324;28;20076;-69
2021/06/02 05:57:14;;;;;;;0.60;0.57;;;22.40;50.20;;;;;;6343119;28;20032;-64
2021/06/02 06:00:33;;;;;;;0.60;0.50;;;22.40;50.20;;;;;;6326140;28;20028;-65
2021/06/02 06:03:40;;;;;;;0.90;0.60;;;22.40;50.20;;;;;;6339442;28;20099;-66
2021/06/02 06:07:14;;;;;;;1.67;0.50;;;22.40;50.20;;;;;;6342453;28;20568;-65
2021/06/02 06:10:45;;;;;;;1.15;0.60;;;22.40;50.20;;;;;;6340671;28;20030;-65
2021/06/02 06:14:05;;;;;;;1.45;0.50;;;22.40;50.20;;;;;;6335726;28;20034;-65
2021/06/02 06:17:15;;;;;;;0.50;0.40;;;22.40;50.20;;;;;;6317369;28;20062;-65
2021/06/02 06:20:29;;;;;;;0.65;0.63;;;22.40;50.20;;;;;;6319201;28;20020;-65
2021/06/02 06:23:51;;;;;;;0.80;0.75;;;22.40;50.20;;;;;;6341127;28;20081;-64
2021/06/02 06:27:15;;;;;;;0.70;0.63;;;22.40;50.20;;;;;;6343177;27;20480;-65
2021/06/02 06:30:23;;;;;;;3.72;0.80;;;22.40;50.20;;;;;;6321129;28;20512;-64
2021/06/02 06:33:27;;;;;;;0.90;0.60;;;22.40;50.20;;;;;;6343506;28;20024;-64
2021/06/02 06:36:28;;;;;;;1.25;0.60;;;22.40;50.30;;;;;;6346738;28;20016;-64
2021/06/02 06:39:44;;;;;;;0.52;0.52;;;22.40;50.30;;;;;;6348047;27;20038;-64
2021/06/02 06:42:50;;;;;;;0.70;0.50;;;22.40;50.30;;;;;;6345908;28;20038;-63
2021/06/02 06:45:55;;;;;;;0.88;0.65;;;22.40;50.30;;;;;;6329336;28;20019;-64
2021/06/02 06:48:57;;;;;;;;;;;22.40;50.20;;;;;;6347312;28;20068;-63
2021/06/02 06:52:01;;;;;;;1.08;0.80;;;22.40;50.30;;;;;;6344893;28;19965;-64
2021/06/02 06:55:04;;;;;;;1.13;0.60;;;22.40;50.40;;;;;;6331862;27;20564;-64
2021/06/02 06:58:06;;;;;;;3.22;0.65;;;22.50;50.40;;;;;;6346254;28;20027;-64
2021/06/02 07:01:07;;;;;;;1.60;0.70;;;22.50;50.30;;;;;;6345128;28;20023;-64
2021/06/02 07:04:08;;;;;;;3.72;0.60;;;22.50;51.10;;;;;;6326955;28;20015;-63
2021/06/02 07:07:10;;;;;;;1.90;0.63;;;22.50;50.40;;;;;;6345729;28;20034;-64
2021/06/02 07:10:13;;;;;;;0.88;0.60;;;22.50;50.40;;;;;;6326903;28;20441;-64
2021/06/02 07:13:14;;;;;;;0.95;0.57;;;22.50;50.40;;;;;;6346428;28;20073;-64
2021/06/02 07:16:17;;;;;;;1.10;0.70;;;22.40;48.50;;;;;;6343395;28;20108;-64
2021/06/02 07:19:20;;;;;;;2.67;0.50;;;22.40;48.10;;;;;;6345687;28;20115;-64
2021/06/02 07:22:23;;;;;;;0.90;0.80;;;22.50;47.60;;;;;;6344535;28;20020;-63
2021/06/02 07:25:30;;;;;;;0.70;0.70;;;22.50;47.30;;;;;;6327593;28;20031;-65
2021/06/02 07:28:35;;;;;;;0.60;0.50;;;22.60;47.00;;;;;;6344880;28;20081;-64
2021/06/02 07:31:36;;;;;;;0.80;0.60;;;22.60;46.80;;;;;;6327669;28;20028;-64
2021/06/02 07:34:38;;;;;;;0.90;0.70;;;22.70;46.70;;;;;;6327083;28;20023;-63
2021/06/02 07:37:39;;;;;;;0.90;0.60;;;22.80;46.60;;;;;;6345085;28;20035;-64
2021/06/02 07:40:41;;;;;;;1.30;0.80;;;22.80;47.10;;;;;;6346340;28;20020;-65
2021/06/02 07:43:42;;;;;;;0.98;0.60;;;22.80;46.40;;;;;;6346019;28;20016;-64
2021/06/02 07:46:43;;;;;;;1.10;0.63;;;22.80;46.20;;;;;;6327207;28;20047;-64
2021/06/02 07:49:43;;;;;;;0.43;0.43;;;22.80;46.10;;;;;;6327180;28;20016;-64
2021/06/02 07:52:46;;;;;;;1.35;0.90;;;22.90;46.20;;;;;;6345292;28;20153;-64
2021/06/02 07:55:47;;;;;;;1.27;0.68;;;22.90;46.00;;;;;;6345845;28;20142;-63
2021/06/02 07:58:47;;;;;;;1.85;0.70;;;22.90;46.00;;;;;;6344575;28;20411;-63
2021/06/02 08:01:48;;;;;;;0.70;0.65;;;22.90;45.90;;;;;;6344599;28;20028;-64
2021/06/02 08:04:48;;;;;;;0.85;0.55;;;22.90;45.90;;;;;;6326339;28;20023;-64
2021/06/02 08:07:49;;;;;;;1.10;0.60;;;22.90;45.80;;;;;;6344563;28;20122;-64
2021/06/02 08:10:50;;;;;;;0.45;0.45;;;22.90;45.80;;;;;;6344405;28;20039;-64
2021/06/02 08:13:51;;;;;;;0.90;0.60;;;23.00;45.70;;;;;;6342219;28;20106;-63
2021/06/02 08:16:51;;;;;;;0.55;0.50;;;23.00;45.70;;;;;;6338477;28;20024;-64
2021/06/02 08:19:52;;;;;;;0.82;0.70;;;23.00;45.60;;;;;;6344957;28;20434;-64
2021/06/02 08:22:53;;;;;;;1.05;0.70;;;23.00;45.60;;;;;;6345557;28;20653;-64
2021/06/02 08:25:54;;;;;;;2.47;0.82;;;23.00;45.50;;;;;;6346435;28;20042;-64
2021/06/02 08:28:57;;;;;;;1.20;0.90;;;23.00;45.50;;;;;;6326754;28;20028;-64
2021/06/02 08:31:58;;;;;;;0.77;0.68;;;23.00;45.40;;;;;;6326791;28;20026;-63
2021/06/02 08:34:58;;;;;;;1.27;0.80;;;23.00;45.50;;;;;;6343895;28;20477;-64
2021/06/02 08:37:59;;;;;;;1.20;0.80;;;23.00;45.40;;;;;;6326269;28;20110;-63
2021/06/02 08:41:00;;;;;;;0.75;0.43;;;23.00;45.30;;;;;;6343839;28;20034;-64
2021/06/02 08:44:00;;;;;;;0.90;0.50;;;23.00;45.30;;;;;;6344075;28;20106;-63
2021/06/02 08:47:03;;;;;;;2.13;0.85;;;23.10;45.30;;;;;;6342805;28;20102;-64
2021/06/02 08:50:09;;;;;;;1.13;0.70;;;23.00;45.20;;;;;;6343654;28;20028;-64
2021/06/02 08:53:14;;;;;;;0.95;0.70;;;23.10;45.20;;;;;;6343411;28;20046;-63
2021/06/02 08:56:15;;;;;;;1.58;0.65;;;23.10;45.10;;;;;;6343244;28;20054;-64
2021/06/02 08:59:17;;;;;;;0.90;0.70;;;23.10;45.20;;;;;;6343758;28;20031;-64
2021/06/02 09:02:17;;;;;;;1.13;0.65;;;23.10;45.10;;;;;;6343192;28;20342;-63
2021/06/02 09:05:18;;;;;;;1.00;0.73;;;23.10;45.10;;;;;;6325025;28;20023;-64
2021/06/02 09:08:23;;;;;;;1.52;0.70;;;23.10;45.00;;;;;;6343747;28;20039;-64
2021/06/02 09:11:29;;;;;;;0.50;0.50;;;23.10;45.00;;;;;;6344749;28;20395;-64
2021/06/02 09:14:32;;;;;;;0.88;0.70;;;23.10;45.00;;;;;;6325666;28;20026;-64
2021/06/02 09:17:49;;;;;;;0.63;0.50;;;23.10;44.90;;;;;;6343375;28;20081;-64
2021/06/02 09:20:53;;;;;;;0.80;0.52;;;23.10;44.90;;;;;;6324251;28;20072;-64
2021/06/02 09:23:54;;;;;;;0.73;0.55;;;23.10;44.90;;;;;;6342894;28;20482;-64
2021/06/02 09:26:56;;;;;;;1.02;0.70;;;23.10;44.80;;;;;;6325625;28;20082;-64
2021/06/02 09:29:58;;;;;;;1.27;0.73;;;23.10;44.80;;;;;;6344472;28;20027;-64
2021/06/02 09:33:00;;;;;;;0.60;0.50;;;23.10;44.80;;;;;;6325607;28;20031;-64
2021/06/02 09:36:06;;;;;;;0.52;0.50;;;23.10;44.80;;;;;;6344811;28;20028;-64
2021/06/02 09:39:12;;;;;;;1.35;0.77;;;23.20;44.80;;;;;;6344283;28;20495;-64
2021/06/02 09:42:17;;;;;;;0.70;0.60;;;23.10;44.80;;;;;;6342741;28;20108;-64
2021/06/02 09:45:17;;;;;;;1.05;0.80;;;23.20;44.80;;;;;;6342963;28;20015;-64
2021/06/02 09:48:19;;;;;;;1.05;0.50;;;23.20;44.80;;;;;;6342625;28;20038;-63
2021/06/02 09:51:32;;;;;;;0.98;0.70;;;23.20;44.80;;;;;;6342278;28;20467;-64
2021/06/02 09:54:33;;;;;;;0.80;0.70;;;23.20;44.70;;;;;;6324297;28;20082;-64
2021/06/02 09:57:34;;;;;;;0.90;0.65;;;23.20;44.70;;;;;;6342376;28;20028;-64
2021/06/02 10:00:45;;;;;;;1.45;0.73;;;23.20;44.80;;;;;;6350364;28;20425;-63
2021/06/02 10:03:46;;;;;;;0.80;0.70;;;23.20;44.70;;;;;;6352734;28;20092;-64
2021/06/02 10:06:47;;;;;;;1.30;0.70;;;23.20;44.60;;;;;;6333103;28;20076;-70
2021/06/02 10:09:48;;;;;;;0.52;0.50;;;23.20;44.60;;;;;;6351190;28;20389;-70
2021/06/02 10:13:05;;;;;;;1.27;0.80;;;23.20;44.60;;;;;;6350175;28;20024;-70
2021/06/02 10:16:08;;;;;;;0.60;0.60;;;23.20;44.50;;;;;;6350887;28;20034;-70
2021/06/02 10:19:09;;;;;;;1.23;0.70;;;23.20;44.50;;;;;;6324646;28;20024;-70
2021/06/02 10:22:23;;;;;;;0.93;0.70;;;23.20;44.60;;;;;;6318783;28;20026;-70
2021/06/02 10:25:26;;;;;;;1.70;0.60;;;23.20;44.50;;;;;;6339463;28;20011;-70
2021/06/02 10:28:27;;;;;;;0.90;0.70;;;23.20;44.50;;;;;;6315811;28;20036;-70
2021/06/02 10:31:28;;;;;;;1.25;0.70;;;23.20;44.50;;;;;;6311339;28;20037;-70
2021/06/02 10:34:29;;;;;;;1.20;0.60;;;23.20;44.40;;;;;;6300306;28;20078;-70
2021/06/02 10:37:29;;;;;;;0.65;0.57;;;23.20;44.40;;;;;;6304632;28;20404;-70
2021/06/02 10:40:31;;;;;;;0.70;0.50;;;23.20;44.30;;;;;;6320623;28;20107;-70
2021/06/02 10:43:39;;;;;;;0.65;0.60;;;23.20;44.30;;;;;;6303883;28;20032;-70
2021/06/02 10:46:47;;;;;;;0.80;0.50;;;23.20;44.30;;;;;;6304044;28;20024;-70
2021/06/02 10:49:48;;;;;;;1.25;0.90;;;23.20;44.30;;;;;;6319814;28;20085;-70
2021/06/02 10:52:50;;;;;;;0.82;0.80;;;23.20;44.20;;;;;;6320357;28;20032;-70
2021/06/02 10:55:52;;;;;;;0.90;0.60;;;23.20;44.20;;;;;;6305003;28;20048;-70
2021/06/02 10:58:55;;;;;;;0.75;0.70;;;23.20;44.20;;;;;;6332082;28;20047;-70
2021/06/02 11:02:06;;;;;;;1.65;0.55;;;23.20;44.30;;;;;;6348562;28;20023;-70
2021/06/02 11:05:07;;;;;;;0.55;0.50;;;23.20;44.20;;;;;;6330518;28;20024;-70
2021/06/02 11:08:07;;;;;;;0.60;0.57;;;23.20;44.20;;;;;;6350510;28;20476;-70
2021/06/02 11:11:21;;;;;;;0.57;0.52;;;23.20;44.20;;;;;;6346663;28;20028;-70
2021/06/02 11:14:24;;;;;;;0.70;0.70;;;23.30;44.30;;;;;;6326580;28;20030;-71
2021/06/02 11:17:26;;;;;;;1.23;0.70;;;23.20;44.20;;;;;;6345329;28;20491;-70
2021/06/02 11:20:44;;;;;;;1.15;0.70;;;23.30;44.30;;;;;;6344626;28;20047;-70
2021/06/02 11:23:46;;;;;;;1.42;0.70;;;23.20;44.20;;;;;;6345653;28;20472;-70
2021/06/02 11:26:47;;;;;;;0.57;0.50;;;23.20;44.20;;;;;;6327641;28;20066;-70
2021/06/02 11:29:50;;;;;;;0.73;0.60;;;23.30;44.20;;;;;;6344940;28;20032;-70
2021/06/02 11:32:56;;;;;;;0.63;0.60;;;23.30;44.20;;;;;;6326743;28;20027;-70
2021/06/02 11:35:58;;;;;;;0.52;0.50;;;23.20;44.20;;;;;;6328369;28;20031;-70
2021/06/02 11:38:59;;;;;;;0.77;0.65;;;23.30;44.20;;;;;;6344570;28;20484;-70
2021/06/02 11:42:00;;;;;;;1.30;0.80;;;23.20;44.10;;;;;;6327483;28;20027;-70
2021/06/02 11:45:09;;;;;;;0.60;0.47;;;23.20;44.10;;;;;;6325522;28;20035;-70
2021/06/02 11:48:19;;;;;;;0.68;0.65;;;23.30;44.20;;;;;;6344607;28;20472;-70
2021/06/02 11:51:20;;;;;;;0.65;0.50;;;23.20;44.10;;;;;;6325876;28;20027;-70
2021/06/02 11:54:22;;;;;;;0.60;0.57;;;23.30;44.20;;;;;;6344149;28;20144;-70
2021/06/02 11:57:22;;;;;;;0.40;0.40;;;23.30;44.10;;;;;;6344260;28;20054;-70
2021/06/02 12:00:29;;;;;;;0.70;0.60;;;23.20;44.10;;;;;;6324942;28;20477;-70
2021/06/02 12:03:30;;;;;;;0.55;0.50;;;23.30;44.10;;;;;;6325163;28;20024;-64
2021/06/02 12:06:33;;;;;;;0.68;0.68;;;23.30;44.10;;;;;;6325505;28;20045;-64
2021/06/02 12:09:47;;;;;;;0.75;0.60;;;23.30;44.10;;;;;;6343874;28;20024;-64
2021/06/02 12:12:48;;;;;;;0.70;0.57;;;23.30;44.10;;;;;;6343522;28;20085;-64
2021/06/02 12:15:58;;;;;;;0.50;0.50;;;23.30;44.00;;;;;;6343645;28;20035;-64
2021/06/02 12:19:00;;;;;;;0.75;0.60;;;23.30;44.00;;;;;;6325061;28;20477;-64
2021/06/02 12:22:15;;;;;;;0.93;0.80;;;23.30;43.90;;;;;;6342125;28;20030;-64
2021/06/02 12:25:21;;;;;;;0.80;0.60;;;23.30;44.00;;;;;;6324040;28;20024;-64
2021/06/02 12:28:24;;;;;;;0.60;0.60;;;23.30;44.00;;;;;;6325490;28;20039;-64
2021/06/02 12:31:34;;;;;;;0.60;0.60;;;23.30;43.90;;;;;;6313596;28;20028;-64
2021/06/02 12:34:36;;;;;;;0.50;0.50;;;23.30;43.90;;;;;;6343144;28;20039;-64
2021/06/02 12:37:37;;;;;;;0.60;0.60;;;23.30;43.90;;;;;;6342529;28;20035;-64
2021/06/02 12:40:46;;;;;;;0.75;0.57;;;23.30;43.90;;;;;;6343114;28;20045;-64
2021/06/02 12:43:49;;;;;;;0.60;0.60;;;23.30;43.90;;;;;;6328421;28;20110;-64
2021/06/02 12:47:07;;;;;;;0.60;0.50;;;23.30;43.90;;;;;;6325341;28;20135;-64
2021/06/02 12:50:09;;;;;;;0.73;0.57;;;23.30;43.90;;;;;;6342191;28;20271;-64
2021/06/02 12:53:11;;;;;;;0.75;0.60;;;23.30;43.90;;;;;;6324484;28;20023;-64
2021/06/02 12:56:13;;;;;;;0.85;0.70;;;23.30;43.90;;;;;;6342340;28;20055;-64
2021/06/02 12:59:14;;;;;;;0.60;0.60;;;23.30;43.90;;;;;;6342617;28;20506;-64
2021/06/02 13:02:14;;;;;;;0.70;0.70;;;23.30;43.90;;;;;;6341609;28;20019;-64
2021/06/02 13:05:16;;;;;;;0.52;0.52;;;23.30;43.80;;;;;;6343713;27;20076;-63
2021/06/02 13:08:17;;;;;;;0.77;0.60;;;23.30;43.80;;;;;;6350633;27;20028;-64
2021/06/02 13:11:28;;;;;;;0.57;0.57;;;23.30;43.90;;;;;;6342246;28;20035;-64
2021/06/02 13:14:34;;;;;;;0.85;0.75;;;23.30;43.80;;;;;;6341816;28;20364;-64
2021/06/02 13:17:39;;;;;;;0.50;0.50;;;23.30;43.80;;;;;;6341821;28;20163;-64
2021/06/02 13:20:41;;;;;;;0.50;0.47;;;23.30;44.10;;;;;;6320157;28;20035;-64
2021/06/02 13:23:42;;;;;;;0.88;0.70;;;23.20;44.60;;;;;;6344730;28;20027;-64
2021/06/02 13:26:52;;;;;;;0.75;0.60;;;23.10;44.70;;;;;;6338519;28;20032;-64
2021/06/02 13:30:19;;;;;;;0.50;0.50;;;23.10;45.00;;;;;;6324845;28;20115;-69
2021/06/02 13:33:20;;;;;;;0.65;0.50;;;23.00;45.30;;;;;;6338182;28;20150;-69
2021/06/02 13:36:25;;;;;;;0.60;0.50;;;23.00;45.70;;;;;;6342829;28;20028;-69
2021/06/02 13:39:25;;;;;;;0.65;0.50;;;23.00;45.80;;;;;;6322895;28;20106;-69
2021/06/02 13:42:27;;;;;;;0.50;0.50;;;23.00;46.00;;;;;;6323193;28;20038;-69
2021/06/02 13:45:49;;;;;;;1.17;0.60;;;22.90;46.10;;;;;;6341351;28;20364;-69
2021/06/02 13:48:51;;;;;;;0.77;0.50;;;22.90;46.20;;;;;;6322952;28;20107;-69
2021/06/02 13:51:51;;;;;;;0.45;0.45;;;22.90;46.40;;;;;;6341597;28;20065;-69
2021/06/02 13:55:00;;;;;;;0.50;0.50;;;22.90;46.40;;;;;;6323800;28;20071;-64
2021/06/02 13:58:14;;;;;;;0.43;0.43;;;22.90;46.50;;;;;;6341889;28;20151;-64
2021/06/02 14:01:26;;;;;;;0.57;0.57;;;22.90;46.60;;;;;;6324275;28;20034;-69
2021/06/02 14:04:27;;;;;;;0.60;0.60;;;22.90;46.70;;;;;;6341230;28;20020;-69
2021/06/02 14:07:28;;;;;;;0.50;0.50;;;22.90;46.80;;;;;;6341884;28;20043;-68
2021/06/02 14:10:28;;;;;;;0.50;0.50;;;22.90;46.80;;;;;;6340633;28;20481;-69
2021/06/02 14:13:29;;;;;;;0.50;0.50;;;22.90;47.60;;;;;;6323518;28;20087;-69
2021/06/02 14:16:29;;;;;;;0.55;0.40;;;22.90;47.00;;;;;;6323050;28;20047;-69
2021/06/02 14:19:31;;;;;;;0.68;0.57;;;22.90;47.00;;;;;;6341179;28;20099;-68
2021/06/02 14:22:33;;;;;;;0.60;0.60;;;22.90;47.10;;;;;;6340686;28;20047;-69
2021/06/02 14:25:34;;;;;;;0.50;0.50;;;22.80;47.00;;;;;;6322308;28;20495;-69
2021/06/02 14:28:34;;;;;;;0.40;0.40;;;22.80;47.10;;;;;;6340634;28;20023;-69
2021/06/02 14:31:35;;;;;;;0.55;0.52;;;22.80;47.10;;;;;;6340241;28;20059;-69
2021/06/02 14:34:37;;;;;;;0.57;0.52;;;22.80;47.20;;;;;;6340132;28;20024;-69
2021/06/02 14:37:42;;;;;;;0.60;0.60;;;22.80;47.20;;;;;;6322112;28;20032;-68
2021/06/02 14:40:43;;;;;;;;;;;22.80;47.30;;;;;;6341726;28;20153;-69
2021/06/02 14:43:44;;;;;;;0.65;0.52;;;22.80;47.30;;;;;;6341372;28;19904;-69
2021/06/02 14:46:44;;;;;;;0.50;0.47;;;22.80;47.40;;;;;;6325934;28;20379;-69
2021/06/02 14:49:45;;;;;;;0.70;0.60;;;22.80;47.40;;;;;;6326941;28;20030;-69
2021/06/02 14:52:45;;;;;;;0.60;0.60;;;22.80;47.50;;;;;;6346076;28;20026;-69
2021/06/02 14:55:46;;;;;;;0.50;0.50;;;22.80;47.50;;;;;;6327278;28;20048;-69
2021/06/02 14:58:48;;;;;;;0.93;0.65;;;22.80;47.50;;;;;;6345772;28;20045;-69
2021/06/02 15:01:49;;;;;;;0.50;0.45;;;22.80;47.50;;;;;;6326992;28;20020;-69
2021/06/02 15:04:51;;;;;;;0.40;0.40;;;22.80;47.60;;;;;;6327430;28;20024;-69
2021/06/02 15:07:51;;;;;;;0.50;0.50;;;22.80;47.70;;;;;;6335517;27;20023;-69
2021/06/02 15:10:53;;;;;;;0.70;0.50;;;22.80;47.70;;;;;;6323265;28;20077;-69
2021/06/02 15:13:55;;;;;;;0.70;0.57;;;22.80;47.70;;;;;;6337248;27;20023;-68
2021/06/02 15:16:55;;;;;;;0.45;0.45;;;22.80;47.70;;;;;;6344243;28;20051;-66
2021/06/02 15:19:57;;;;;;;0.38;0.30;;;22.80;47.80;;;;;;6340063;28;20015;-66
2021/06/02 15:22:59;;;;;;;0.63;0.60;;;22.80;48.00;;;;;;6344543;28;20088;-67
2021/06/02 15:26:00;;;;;;;0.88;0.50;;;22.80;48.00;;;;;;6345086;28;20019;-65
2021/06/02 15:29:04;;;;;;;0.60;0.50;;;22.80;48.00;;;;;;6326204;28;20031;-67
2021/06/02 15:32:06;;;;;;;0.40;0.40;;;22.80;48.00;;;;;;6345223;28;20020;-66
2021/06/02 15:35:08;;;;;;;0.70;0.60;;;22.80;48.00;;;;;;6344573;28;20089;-67
2021/06/02 15:38:10;;;;;;;0.40;0.40;;;22.80;48.00;;;;;;6325628;28;20442;-66
2021/06/02 15:41:11;;;;;;;1.15;0.60;;;22.80;48.00;;;;;;6326521;28;20121;-66
2021/06/02 15:44:12;;;;;;;1.17;0.60;;;22.80;48.10;;;;;;6344447;28;20633;-66
2021/06/02 15:47:13;;;;;;;3.72;0.68;;;22.80;48.10;;;;;;6344268;28;20020;-66
2021/06/02 15:50:16;;;;;;;1.10;0.52;;;22.70;48.10;;;;;;6344457;28;20080;-66
2021/06/02 15:53:22;;;;;;;3.05;0.60;;;22.70;48.20;;;;;;6345281;28;20431;-66
2021/06/02 15:56:22;;;;;;;0.30;0.30;;;22.70;48.20;;;;;;6325994;28;20400;-66
2021/06/02 15:59:25;;;;;;;0.82;0.40;;;22.70;48.20;;;;;;6343287;28;20035;-66
2021/06/02 16:02:26;;;;;;;0.68;0.60;;;22.70;48.20;;;;;;6331274;28;20059;-66
2021/06/02 16:05:28;;;;;;;0.40;0.40;;;22.70;48.30;;;;;;6321910;28;20024;-66
2021/06/02 16:08:29;;;;;;;0.50;0.40;;;22.70;48.30;;;;;;6323133;28;20024;-66
2021/06/02 16:11:31;;;;;;;1.35;0.63;;;22.70;48.30;;;;;;6342690;28;20127;-67
2021/06/02 16:14:34;;;;;;;2.25;0.60;;;22.70;48.50;;;;;;6341667;28;20042;-67
2021/06/02 16:17:34;;;;;;;2.58;0.65;;;22.70;48.50;;;;;;6322440;28;20492;-67
2021/06/02 16:20:38;;;;;;;2.45;0.60;;;22.70;48.50;;;;;;6339943;28;20031;-66
2021/06/02 16:23:38;;;;;;;5.60;0.80;;;22.80;48.60;;;;;;6335915;28;20030;-66
2021/06/02 16:26:40;;;;;;;1.42;0.70;;;22.70;48.60;;;;;;6322975;28;20024;-67